sensor_id;sensor_type;location;lat;lon;timestamp;pressure;altitude;pressure_sealevel;temperature;humidity
41467;BME280;72625;53.700;19.958;2024-02-23T00:04:31;97870.73;;;9.32;90.07
41467;BME280;72625;53.700;19.958;2024-02-23T00:09:37;97866.32;;;9.33;90.03
41467;BME280;72625;53.700;19.958;2024-02-23T00:14:41;97855.30;;;9.31;89.50
41467;BME280;72625;53.700;19.958;2024-02-23T00:19:45;97849.94;;;9.26;89.67
41467;BME280;72625;53.700;19.958;2024-02-23T00:24:50;97845.30;;;9.25;89.60
41467;BME280;72625;53.700;19.958;2024-02-23T00:29:57;97837.01;;;9.26;89.51
41467;BME280;72625;53.700;19.958;2024-02-23T00:35:00;97822.44;;;9.24;89.14
41467;BME280;72625;53.700;19.958;2024-02-23T00:40:13;97816.80;;;9.24;89.52
41467;BME280;72625;53.700;19.958;2024-02-23T00:45:20;97813.33;;;9.27;89.28
41467;BME280;72625;53.700;19.958;2024-02-23T00:50:46;97798.77;;;9.23;89.02
41467;BME280;72625;53.700;19.958;2024-02-23T00:56:02;97808.70;;;9.23;89.49
41467;BME280;72625;53.700;19.958;2024-02-23T01:01:08;97803.39;;;9.26;89.73
41467;BME280;72625;53.700;19.958;2024-02-23T01:06:30;97793.36;;;9.26;89.47
41467;BME280;72625;53.700;19.958;2024-02-23T01:11:56;97789.77;;;9.26;89.18
41467;BME280;72625;53.700;19.958;2024-02-23T01:17:20;97795.06;;;9.25;89.07
41467;BME280;72625;53.700;19.958;2024-02-23T01:22:24;97785.94;;;9.24;88.99
41467;BME280;72625;53.700;19.958;2024-02-23T01:27:28;97782.44;;;9.24;88.86
41467;BME280;72625;53.700;19.958;2024-02-23T01:32:32;97791.55;;;9.20;88.55
41467;BME280;72625;53.700;19.958;2024-02-23T01:37:38;97785.50;;;9.16;88.60
41467;BME280;72625;53.700;19.958;2024-02-23T01:43:04;97779.19;;;9.13;88.40
41467;BME280;72625;53.700;19.958;2024-02-23T01:48:08;97768.34;;;9.09;88.64
41467;BME280;72625;53.700;19.958;2024-02-23T01:53:12;97764.86;;;9.05;88.52
41467;BME280;72625;53.700;19.958;2024-02-23T01:58:19;97767.23;;;9.02;88.42
41467;BME280;72625;53.700;19.958;2024-02-23T02:03:23;97760.98;;;9.03;88.81
41467;BME280;72625;53.700;19.958;2024-02-23T02:08:47;97767.20;;;9.07;88.73
41467;BME280;72625;53.700;19.958;2024-02-23T02:13:51;97763.55;;;9.13;88.89
41467;BME280;72625;53.700;19.958;2024-02-23T02:18:55;97758.88;;;9.18;88.74
41467;BME280;72625;53.700;19.958;2024-02-23T02:24:01;97754.95;;;9.20;88.81
41467;BME280;72625;53.700;19.958;2024-02-23T02:29:04;97748.71;;;9.20;88.54
41467;BME280;72625;53.700;19.958;2024-02-23T02:34:15;97753.87;;;9.18;88.25
41467;BME280;72625;53.700;19.958;2024-02-23T02:39:19;97760.02;;;9.18;88.53
41467;BME280;72625;53.700;19.958;2024-02-23T02:44:40;97756.83;;;9.18;88.52
41467;BME280;72625;53.700;19.958;2024-02-23T02:50:05;97762.00;;;9.18;88.43
41467;BME280;72625;53.700;19.958;2024-02-23T02:55:10;97760.41;;;9.18;88.58
41467;BME280;72625;53.700;19.958;2024-02-23T03:00:26;97758.88;;;9.21;88.52
41467;BME280;72625;53.700;19.958;2024-02-23T03:05:39;97761.96;;;9.24;88.51
41467;BME280;72625;53.700;19.958;2024-02-23T03:10:54;97768.66;;;9.24;88.61
41467;BME280;72625;53.700;19.958;2024-02-23T03:15:57;97765.13;;;9.27;88.50
41467;BME280;72625;53.700;19.958;2024-02-23T03:21:12;97758.29;;;9.28;88.54
41467;BME280;72625;53.700;19.958;2024-02-23T03:26:18;97765.42;;;9.34;88.31
41467;BME280;72625;53.700;19.958;2024-02-23T03:31:25;97764.88;;;9.39;88.39
41467;BME280;72625;53.700;19.958;2024-02-23T03:36:30;97766.48;;;9.44;88.35
41467;BME280;72625;53.700;19.958;2024-02-23T03:41:39;97772.35;;;9.46;88.35
41467;BME280;72625;53.700;19.958;2024-02-23T03:46:43;97776.50;;;9.45;88.66
41467;BME280;72625;53.700;19.958;2024-02-23T03:51:49;97776.55;;;9.44;88.56
41467;BME280;72625;53.700;19.958;2024-02-23T03:57:02;97777.49;;;9.41;88.49
41467;BME280;72625;53.700;19.958;2024-02-23T04:02:47;97780.54;;;9.41;88.58
41467;BME280;72625;53.700;19.958;2024-02-23T04:07:50;97782.14;;;9.36;88.71
41467;BME280;72625;53.700;19.958;2024-02-23T04:12:54;97774.43;;;9.32;88.68
41467;BME280;72625;53.700;19.958;2024-02-23T04:18:00;97782.36;;;9.27;88.73
41467;BME280;72625;53.700;19.958;2024-02-23T04:23:11;97789.33;;;9.24;88.90
41467;BME280;72625;53.700;19.958;2024-02-23T04:28:26;97791.15;;;9.20;89.28
41467;BME280;72625;53.700;19.958;2024-02-23T04:33:39;97800.08;;;9.22;89.22
41467;BME280;72625;53.700;19.958;2024-02-23T04:38:46;97800.80;;;9.26;89.47
41467;BME280;72625;53.700;19.958;2024-02-23T04:43:50;97796.17;;;9.29;89.71
41467;BME280;72625;53.700;19.958;2024-02-23T04:49:05;97789.77;;;9.32;89.93
41467;BME280;72625;53.700;19.958;2024-02-23T04:54:08;97797.23;;;9.35;90.03
41467;BME280;72625;53.700;19.958;2024-02-23T04:59:12;97802.50;;;9.36;90.03
41467;BME280;72625;53.700;19.958;2024-02-23T05:04:16;97815.42;;;9.39;90.17
41467;BME280;72625;53.700;19.958;2024-02-23T05:09:23;97818.34;;;9.41;90.11
41467;BME280;72625;53.700;19.958;2024-02-23T05:14:26;97819.23;;;9.44;90.17
41467;BME280;72625;53.700;19.958;2024-02-23T05:19:30;97820.92;;;9.43;90.44
41467;BME280;72625;53.700;19.958;2024-02-23T05:24:34;97826.44;;;9.42;90.74
41467;BME280;72625;53.700;19.958;2024-02-23T05:29:37;97829.38;;;9.43;90.79
41467;BME280;72625;53.700;19.958;2024-02-23T05:34:41;97838.71;;;9.44;91.13
41467;BME280;72625;53.700;19.958;2024-02-23T05:39:44;97850.54;;;9.46;91.43
41467;BME280;72625;53.700;19.958;2024-02-23T05:44:53;97850.10;;;9.51;91.40
41467;BME280;72625;53.700;19.958;2024-02-23T05:50:10;97855.44;;;9.57;91.48
41467;BME280;72625;53.700;19.958;2024-02-23T05:55:14;97859.95;;;9.60;91.79
41467;BME280;72625;53.700;19.958;2024-02-23T06:00:38;97871.55;;;9.65;92.02
41467;BME280;72625;53.700;19.958;2024-02-23T06:05:42;97877.97;;;9.69;92.27
41467;BME280;72625;53.700;19.958;2024-02-23T06:10:46;97883.02;;;9.74;92.07
41467;BME280;72625;53.700;19.958;2024-02-23T06:15:49;97893.33;;;9.78;92.34
41467;BME280;72625;53.700;19.958;2024-02-23T06:20:55;97897.80;;;9.81;92.35
41467;BME280;72625;53.700;19.958;2024-02-23T06:25:59;97902.73;;;9.87;92.54
41467;BME280;72625;53.700;19.958;2024-02-23T06:31:23;97911.91;;;9.90;92.61
41467;BME280;72625;53.700;19.958;2024-02-23T06:36:34;97918.27;;;9.94;92.97
41467;BME280;72625;53.700;19.958;2024-02-23T06:41:38;97926.84;;;9.98;92.90
41467;BME280;72625;53.700;19.958;2024-02-23T06:46:48;97935.68;;;10.03;93.06
41467;BME280;72625;53.700;19.958;2024-02-23T06:51:54;97947.28;;;10.09;93.27
41467;BME280;72625;53.700;19.958;2024-02-23T06:56:58;97957.34;;;10.12;93.59
41467;BME280;72625;53.700;19.958;2024-02-23T07:02:01;97966.67;;;10.16;93.29
41467;BME280;72625;53.700;19.958;2024-02-23T07:07:06;97971.23;;;10.20;93.56
41467;BME280;72625;53.700;19.958;2024-02-23T07:12:13;97977.31;;;10.23;93.72
41467;BME280;72625;53.700;19.958;2024-02-23T07:17:17;97991.98;;;10.26;93.68
41467;BME280;72625;53.700;19.958;2024-02-23T07:22:20;97995.01;;;10.28;93.72
41467;BME280;72625;53.700;19.958;2024-02-23T07:27:25;98008.70;;;10.31;93.70
41467;BME280;72625;53.700;19.958;2024-02-23T07:32:38;98010.99;;;10.32;94.03
41467;BME280;72625;53.700;19.958;2024-02-23T07:37:57;98021.77;;;10.36;94.24
41467;BME280;72625;53.700;19.958;2024-02-23T07:43:01;98029.11;;;10.41;94.50
41467;BME280;72625;53.700;19.958;2024-02-23T07:48:12;98033.31;;;10.48;94.47
41467;BME280;72625;53.700;19.958;2024-02-23T07:53:16;98045.92;;;10.59;94.41
41467;BME280;72625;53.700;19.958;2024-02-23T07:58:20;98047.79;;;10.72;94.40
41467;BME280;72625;53.700;19.958;2024-02-23T08:03:24;98051.56;;;10.85;94.14
41467;BME280;72625;53.700;19.958;2024-02-23T08:08:29;98063.34;;;10.93;93.89
41467;BME280;72625;53.700;19.958;2024-02-23T08:13:36;98075.59;;;11.05;94.04
41467;BME280;72625;53.700;19.958;2024-02-23T08:18:39;98084.30;;;11.16;93.65
41467;BME280;72625;53.700;19.958;2024-02-23T08:23:43;98096.05;;;11.26;93.16
41467;BME280;72625;53.700;19.958;2024-02-23T08:28:47;98098.45;;;11.35;92.90
41467;BME280;72625;53.700;19.958;2024-02-23T08:33:50;98106.64;;;11.46;93.21
41467;BME280;72625;53.700;19.958;2024-02-23T08:38:54;98118.45;;;11.54;92.93
41467;BME280;72625;53.700;19.958;2024-02-23T08:43:57;98124.98;;;11.65;93.53
41467;BME280;72625;53.700;19.958;2024-02-23T08:49:01;98136.43;;;11.75;93.55
41467;BME280;72625;53.700;19.958;2024-02-23T08:54:04;98147.29;;;11.85;93.14
41467;BME280;72625;53.700;19.958;2024-02-23T08:59:09;98161.69;;;11.92;92.64
41467;BME280;72625;53.700;19.958;2024-02-23T09:04:13;98165.54;;;11.98;92.58
41467;BME280;72625;53.700;19.958;2024-02-23T09:09:17;98171.65;;;12.02;92.17
41467;BME280;72625;53.700;19.958;2024-02-23T09:14:20;98182.08;;;11.98;91.80
41467;BME280;72625;53.700;19.958;2024-02-23T09:19:24;98187.77;;;11.96;91.82
41467;BME280;72625;53.700;19.958;2024-02-23T09:24:27;98196.24;;;12.01;92.20
41467;BME280;72625;53.700;19.958;2024-02-23T09:29:31;98202.88;;;12.04;91.79
41467;BME280;72625;53.700;19.958;2024-02-23T09:34:35;98207.92;;;12.06;91.51
41467;BME280;72625;53.700;19.958;2024-02-23T09:39:41;98225.75;;;12.05;90.68
41467;BME280;72625;53.700;19.958;2024-02-23T09:44:45;98232.39;;;12.07;89.79
41467;BME280;72625;53.700;19.958;2024-02-23T09:49:51;98243.36;;;12.04;88.35
41467;BME280;72625;53.700;19.958;2024-02-23T09:54:56;98252.29;;;12.13;88.57
41467;BME280;72625;53.700;19.958;2024-02-23T09:59:59;98259.31;;;12.22;87.92
41467;BME280;72625;53.700;19.958;2024-02-23T10:05:04;98276.13;;;12.33;87.15
41467;BME280;72625;53.700;19.958;2024-02-23T10:10:32;98286.85;;;12.42;86.30
41467;BME280;72625;53.700;19.958;2024-02-23T10:15:37;98292.36;;;12.58;86.55
41467;BME280;72625;53.700;19.958;2024-02-23T10:20:46;98294.25;;;12.71;86.91
41467;BME280;72625;53.700;19.958;2024-02-23T10:25:49;98302.98;;;12.70;85.11
41467;BME280;72625;53.700;19.958;2024-02-23T10:30:53;98313.05;;;12.69;84.01
41467;BME280;72625;53.700;19.958;2024-02-23T10:35:57;98319.63;;;12.66;83.42
41467;BME280;72625;53.700;19.958;2024-02-23T10:41:03;98325.94;;;12.70;81.83
41467;BME280;72625;53.700;19.958;2024-02-23T10:46:09;98337.04;;;12.71;81.71
41467;BME280;72625;53.700;19.958;2024-02-23T10:51:16;98356.25;;;12.76;80.28
41467;BME280;72625;53.700;19.958;2024-02-23T10:56:23;98364.59;;;12.76;78.50
41467;BME280;72625;53.700;19.958;2024-02-23T11:01:27;98380.25;;;12.76;79.09
41467;BME280;72625;53.700;19.958;2024-02-23T11:06:34;98391.92;;;12.71;77.86
41467;BME280;72625;53.700;19.958;2024-02-23T11:11:37;98399.59;;;12.72;77.54
41467;BME280;72625;53.700;19.958;2024-02-23T11:16:41;98407.34;;;12.63;75.85
41467;BME280;72625;53.700;19.958;2024-02-23T11:21:52;98418.11;;;12.53;76.37
41467;BME280;72625;53.700;19.958;2024-02-23T11:26:59;98419.25;;;12.48;74.55
41467;BME280;72625;53.700;19.958;2024-02-23T11:32:04;98428.20;;;12.47;75.41
41467;BME280;72625;53.700;19.958;2024-02-23T11:37:18;98430.59;;;12.40;74.20
41467;BME280;72625;53.700;19.958;2024-02-23T11:42:23;98439.25;;;12.42;74.02
41467;BME280;72625;53.700;19.958;2024-02-23T11:47:27;98460.39;;;12.46;74.05
41467;BME280;72625;53.700;19.958;2024-02-23T11:52:31;98464.20;;;12.48;71.65
41467;BME280;72625;53.700;19.958;2024-02-23T11:57:36;98472.73;;;12.53;71.76
41467;BME280;72625;53.700;19.958;2024-02-23T12:02:50;98487.34;;;12.63;73.42
41467;BME280;72625;53.700;19.958;2024-02-23T12:07:54;98493.91;;;12.68;72.48
41467;BME280;72625;53.700;19.958;2024-02-23T12:12:58;98495.69;;;12.66;71.24
41467;BME280;72625;53.700;19.958;2024-02-23T12:18:03;98499.58;;;12.59;71.58
41467;BME280;72625;53.700;19.958;2024-02-23T12:23:07;98504.20;;;12.43;69.35
41467;BME280;72625;53.700;19.958;2024-02-23T12:28:18;98507.10;;;12.34;71.61
41467;BME280;72625;53.700;19.958;2024-02-23T12:33:21;98517.67;;;12.25;71.04
41467;BME280;72625;53.700;19.958;2024-02-23T12:38:25;98529.23;;;12.22;71.89
41467;BME280;72625;53.700;19.958;2024-02-23T12:43:29;98524.42;;;12.22;72.10
41467;BME280;72625;53.700;19.958;2024-02-23T12:48:33;98538.10;;;12.19;72.65
41467;BME280;72625;53.700;19.958;2024-02-23T12:53:38;98543.31;;;12.20;71.66
41467;BME280;72625;53.700;19.958;2024-02-23T12:58:43;98551.17;;;12.22;72.86
41467;BME280;72625;53.700;19.958;2024-02-23T13:03:48;98555.85;;;12.21;73.19
41467;BME280;72625;53.700;19.958;2024-02-23T13:08:51;98558.70;;;12.15;73.83
41467;BME280;72625;53.700;19.958;2024-02-23T13:13:55;98555.64;;;12.15;73.72
41467;BME280;72625;53.700;19.958;2024-02-23T13:18:59;98561.98;;;12.06;73.49
41467;BME280;72625;53.700;19.958;2024-02-23T13:24:03;98564.86;;;11.94;72.43
41467;BME280;72625;53.700;19.958;2024-02-23T13:29:06;98578.06;;;11.85;72.19
41467;BME280;72625;53.700;19.958;2024-02-23T13:34:13;98581.67;;;11.78;72.22
41467;BME280;72625;53.700;19.958;2024-02-23T13:39:18;98585.23;;;11.81;73.77
41467;BME280;72625;53.700;19.958;2024-02-23T13:44:22;98582.93;;;11.93;73.90
41467;BME280;72625;53.700;19.958;2024-02-23T13:49:26;98591.42;;;12.06;73.94
41467;BME280;72625;53.700;19.958;2024-02-23T13:54:29;98601.30;;;12.10;74.21
41467;BME280;72625;53.700;19.958;2024-02-23T13:59:32;98610.88;;;12.10;74.07
41467;BME280;72625;53.700;19.958;2024-02-23T14:04:36;98628.45;;;12.08;74.25
41467;BME280;72625;53.700;19.958;2024-02-23T14:09:40;98640.58;;;12.00;74.32
41467;BME280;72625;53.700;19.958;2024-02-23T14:14:44;98648.17;;;11.90;73.71
41467;BME280;72625;53.700;19.958;2024-02-23T14:19:47;98657.58;;;11.82;73.87
41467;BME280;72625;53.700;19.958;2024-02-23T14:24:51;98668.50;;;11.84;74.41
41467;BME280;72625;53.700;19.958;2024-02-23T14:29:54;98678.84;;;11.96;74.27
41467;BME280;72625;53.700;19.958;2024-02-23T14:34:57;98687.55;;;12.11;74.45
41467;BME280;72625;53.700;19.958;2024-02-23T14:40:02;98692.89;;;12.14;73.89
41467;BME280;72625;53.700;19.958;2024-02-23T14:45:06;98700.80;;;12.10;74.41
41467;BME280;72625;53.700;19.958;2024-02-23T14:50:10;98709.36;;;12.01;73.78
41467;BME280;72625;53.700;19.958;2024-02-23T14:55:14;98711.32;;;11.91;74.42
41467;BME280;72625;53.700;19.958;2024-02-23T15:00:21;98710.67;;;11.78;74.38
41467;BME280;72625;53.700;19.958;2024-02-23T15:05:25;98715.38;;;11.63;74.45
41467;BME280;72625;53.700;19.958;2024-02-23T15:10:32;98722.71;;;11.51;74.54
41467;BME280;72625;53.700;19.958;2024-02-23T15:15:35;98730.89;;;11.43;74.69
41467;BME280;72625;53.700;19.958;2024-02-23T15:20:43;98736.56;;;11.35;74.93
41467;BME280;72625;53.700;19.958;2024-02-23T15:25:47;98735.07;;;11.27;74.94
41467;BME280;72625;53.700;19.958;2024-02-23T15:30:53;98732.07;;;11.22;74.82
41467;BME280;72625;53.700;19.958;2024-02-23T15:35:59;98731.48;;;11.10;74.91
41467;BME280;72625;53.700;19.958;2024-02-23T15:41:03;98736.84;;;11.01;74.82
41467;BME280;72625;53.700;19.958;2024-02-23T15:46:16;98738.34;;;10.89;74.59
41467;BME280;72625;53.700;19.958;2024-02-23T15:51:39;98741.35;;;10.82;74.67
41467;BME280;72625;53.700;19.958;2024-02-23T15:57:04;98748.35;;;10.78;74.93
41467;BME280;72625;53.700;19.958;2024-02-23T16:02:14;98748.60;;;10.75;74.56
41467;BME280;72625;53.700;19.958;2024-02-23T16:07:17;98747.43;;;10.65;74.65
41467;BME280;72625;53.700;19.958;2024-02-23T16:12:29;98750.02;;;10.56;74.66
41467;BME280;72625;53.700;19.958;2024-02-23T16:17:48;98750.38;;;10.39;74.58
41467;BME280;72625;53.700;19.958;2024-02-23T16:23:18;98757.55;;;10.28;74.72
41467;BME280;72625;53.700;19.958;2024-02-23T16:28:25;98766.58;;;10.18;74.66
41467;BME280;72625;53.700;19.958;2024-02-23T16:33:29;98769.80;;;10.14;74.88
41467;BME280;72625;53.700;19.958;2024-02-23T16:38:35;98772.34;;;10.08;74.93
41467;BME280;72625;53.700;19.958;2024-02-23T16:43:39;98786.88;;;10.06;75.02
41467;BME280;72625;53.700;19.958;2024-02-23T16:48:43;98802.99;;;10.07;75.07
41467;BME280;72625;53.700;19.958;2024-02-23T16:53:46;98819.64;;;10.03;75.11
41467;BME280;72625;53.700;19.958;2024-02-23T16:59:02;98830.50;;;9.93;75.13
41467;BME280;72625;53.700;19.958;2024-02-23T17:04:06;98842.30;;;9.85;75.40
41467;BME280;72625;53.700;19.958;2024-02-23T17:09:09;98850.11;;;9.87;75.36
41467;BME280;72625;53.700;19.958;2024-02-23T17:14:16;98850.67;;;9.81;75.44
41467;BME280;72625;53.700;19.958;2024-02-23T17:19:20;98860.31;;;9.72;75.79
41467;BME280;72625;53.700;19.958;2024-02-23T17:24:26;98867.52;;;9.74;75.77
41467;BME280;72625;53.700;19.958;2024-02-23T17:29:30;98870.62;;;9.66;75.65
41467;BME280;72625;53.700;19.958;2024-02-23T17:34:35;98874.41;;;9.60;75.85
41467;BME280;72625;53.700;19.958;2024-02-23T17:39:38;98879.40;;;9.59;75.90
41467;BME280;72625;53.700;19.958;2024-02-23T17:44:42;98885.27;;;9.60;76.15
41467;BME280;72625;53.700;19.958;2024-02-23T17:49:55;98893.54;;;9.69;76.11
41467;BME280;72625;53.700;19.958;2024-02-23T17:54:59;98890.21;;;9.80;75.90
41467;BME280;72625;53.700;19.958;2024-02-23T18:00:03;98894.41;;;9.87;76.03
41467;BME280;72625;53.700;19.958;2024-02-23T18:05:10;98895.48;;;9.88;76.11
41467;BME280;72625;53.700;19.958;2024-02-23T18:10:20;98894.94;;;9.90;76.08
41467;BME280;72625;53.700;19.958;2024-02-23T18:15:24;98894.25;;;9.86;76.00
41467;BME280;72625;53.700;19.958;2024-02-23T18:20:30;98886.86;;;9.73;76.06
41467;BME280;72625;53.700;19.958;2024-02-23T18:25:37;98878.77;;;9.61;75.89
41467;BME280;72625;53.700;19.958;2024-02-23T18:30:41;98870.65;;;9.52;76.12
41467;BME280;72625;53.700;19.958;2024-02-23T18:35:57;98871.45;;;9.56;76.11
41467;BME280;72625;53.700;19.958;2024-02-23T18:41:01;98872.04;;;9.49;76.02
41467;BME280;72625;53.700;19.958;2024-02-23T18:46:13;98873.35;;;9.34;76.28
41467;BME280;72625;53.700;19.958;2024-02-23T18:51:16;98874.36;;;9.19;76.65
41467;BME280;72625;53.700;19.958;2024-02-23T18:56:31;98877.96;;;9.08;76.66
41467;BME280;72625;53.700;19.958;2024-02-23T19:01:46;98877.68;;;8.96;76.75
41467;BME280;72625;53.700;19.958;2024-02-23T19:06:56;98881.09;;;8.83;76.92
41467;BME280;72625;53.700;19.958;2024-02-23T19:12:29;98878.38;;;8.76;77.07
41467;BME280;72625;53.700;19.958;2024-02-23T19:17:31;98881.59;;;8.70;77.58
41467;BME280;72625;53.700;19.958;2024-02-23T19:22:47;98886.79;;;8.69;77.44
41467;BME280;72625;53.700;19.958;2024-02-23T19:27:51;98892.50;;;8.72;77.17
41467;BME280;72625;53.700;19.958;2024-02-23T19:33:00;98895.84;;;8.76;77.15
41467;BME280;72625;53.700;19.958;2024-02-23T19:38:16;98895.63;;;8.77;77.36
41467;BME280;72625;53.700;19.958;2024-02-23T19:43:40;98897.39;;;8.80;77.43
41467;BME280;72625;53.700;19.958;2024-02-23T19:48:53;98898.51;;;8.88;77.67
41467;BME280;72625;53.700;19.958;2024-02-23T19:53:59;98893.77;;;8.87;77.48
41467;BME280;72625;53.700;19.958;2024-02-23T19:59:03;98890.50;;;8.84;77.36
41467;BME280;72625;53.700;19.958;2024-02-23T20:04:16;98888.70;;;8.80;77.57
41467;BME280;72625;53.700;19.958;2024-02-23T20:09:44;98884.42;;;8.72;77.95
41467;BME280;72625;53.700;19.958;2024-02-23T20:15:00;98890.68;;;8.66;78.01
41467;BME280;72625;53.700;19.958;2024-02-23T20:20:07;98896.64;;;8.63;78.38
41467;BME280;72625;53.700;19.958;2024-02-23T20:25:31;98909.83;;;8.56;78.74
41467;BME280;72625;53.700;19.958;2024-02-23T20:30:35;98911.37;;;8.52;79.07
41467;BME280;72625;53.700;19.958;2024-02-23T20:35:39;98920.54;;;8.54;78.61
41467;BME280;72625;53.700;19.958;2024-02-23T20:41:04;98928.08;;;8.63;78.83
41467;BME280;72625;53.700;19.958;2024-02-23T20:46:08;98924.77;;;8.62;78.47
41467;BME280;72625;53.700;19.958;2024-02-23T20:51:21;98922.69;;;8.63;78.81
41467;BME280;72625;53.700;19.958;2024-02-23T20:56:43;98933.90;;;8.69;78.93
41467;BME280;72625;53.700;19.958;2024-02-23T21:01:49;98934.25;;;8.82;79.04
41467;BME280;72625;53.700;19.958;2024-02-23T21:06:56;98934.58;;;8.92;79.08
41467;BME280;72625;53.700;19.958;2024-02-23T21:12:05;98942.02;;;9.01;79.15
41467;BME280;72625;53.700;19.958;2024-02-23T21:17:11;98944.49;;;9.10;79.12
41467;BME280;72625;53.700;19.958;2024-02-23T21:22:17;98943.50;;;9.09;79.00
41467;BME280;72625;53.700;19.958;2024-02-23T21:27:21;98938.46;;;9.06;79.60
41467;BME280;72625;53.700;19.958;2024-02-23T21:32:25;98935.81;;;9.10;79.55
41467;BME280;72625;53.700;19.958;2024-02-23T21:37:28;98940.59;;;9.13;79.42
41467;BME280;72625;53.700;19.958;2024-02-23T21:42:32;98936.16;;;9.19;79.48
41467;BME280;72625;53.700;19.958;2024-02-23T21:47:35;98937.33;;;9.28;79.54
41467;BME280;72625;53.700;19.958;2024-02-23T21:52:39;98936.97;;;9.30;79.50
41467;BME280;72625;53.700;19.958;2024-02-23T21:57:55;98941.10;;;9.33;79.52
41467;BME280;72625;53.700;19.958;2024-02-23T22:02:58;98948.36;;;9.34;79.89
41467;BME280;72625;53.700;19.958;2024-02-23T22:08:06;98944.30;;;9.30;80.28
41467;BME280;72625;53.700;19.958;2024-02-23T22:13:36;98947.83;;;9.27;80.20
41467;BME280;72625;53.700;19.958;2024-02-23T22:24:57;98940.94;;;9.19;80.31
41467;BME280;72625;53.700;19.958;2024-02-23T22:30:16;98943.48;;;9.13;80.33
41467;BME280;72625;53.700;19.958;2024-02-23T22:35:20;98943.47;;;9.07;80.87
41467;BME280;72625;53.700;19.958;2024-02-23T22:40:26;98936.04;;;9.03;80.95
41467;BME280;72625;53.700;19.958;2024-02-23T22:45:35;98932.02;;;9.05;80.77
41467;BME280;72625;53.700;19.958;2024-02-23T22:50:39;98930.25;;;9.08;81.08
41467;BME280;72625;53.700;19.958;2024-02-23T22:55:44;98940.73;;;9.07;80.92
41467;BME280;72625;53.700;19.958;2024-02-23T23:00:48;98944.08;;;9.03;80.93
41467;BME280;72625;53.700;19.958;2024-02-23T23:05:53;98938.97;;;9.01;80.85
41467;BME280;72625;53.700;19.958;2024-02-23T23:11:01;98939.03;;;8.99;81.10
41467;BME280;72625;53.700;19.958;2024-02-23T23:16:04;98945.02;;;8.94;81.01
41467;BME280;72625;53.700;19.958;2024-02-23T23:21:10;98945.34;;;8.90;81.14
41467;BME280;72625;53.700;19.958;2024-02-23T23:26:24;98941.52;;;8.86;81.40
41467;BME280;72625;53.700;19.958;2024-02-23T23:31:28;98941.92;;;8.77;81.33
41467;BME280;72625;53.700;19.958;2024-02-23T23:36:37;98939.97;;;8.73;81.61
41467;BME280;72625;53.700;19.958;2024-02-23T23:42:01;98929.63;;;8.68;81.69
41467;BME280;72625;53.700;19.958;2024-02-23T23:47:05;98927.67;;;8.67;81.84
41467;BME280;72625;53.700;19.958;2024-02-23T23:52:29;98930.98;;;8.68;81.77
41467;BME280;72625;53.700;19.958;2024-02-23T23:57:36;98922.60;;;8.64;81.89
